Los Gatos, California
Current Conditions -  °F | °C
As of 10:53 AM on Thursday 18 Dec 2014 (Local Time) from KSJC Reporting Station
Broken Clouds Broken Clouds  
Wind Chill: 58°   Ceiling: 16000
Heat Index: 58°   Visibility: 10mi
Dew Point: 48°   Wind: 8mph
Humidity: 70%   Direction: 130°SE
Pressure: 30.18"   Gusts: NA
Location:  37.22°N, 121.97°W
Report Text: KSJC 181853Z 13007KT 10SM FEW014 SCT050 BKN160 14/09 A3018 RMK AO2 SLP219 T01440089
Loading
Personal Weather Stations






























Interactive Weather Map New forecast layout! Learn more

10-Day Weather Forecast

Advertisements
Track Severe Weather on mobile